sensor_id;sensor_type;location;lat;lon;timestamp;P1;durP1;ratioP1;P2;durP2;ratioP2
48596;SDS011;34382;43.160;24.148;2023-12-04T00:00:01;12.13;;;6.95;;
48596;SDS011;34382;43.160;24.148;2023-12-04T00:01:34;13.25;;;7.90;;
48596;SDS011;34382;43.160;24.148;2023-12-04T00:04:41;11.15;;;6.28;;
48596;SDS011;34382;43.160;24.148;2023-12-04T00:06:14;12.52;;;6.93;;
48596;SDS011;34382;43.160;24.148;2023-12-04T00:07:46;13.52;;;7.10;;
48596;SDS011;34382;43.160;24.148;2023-12-04T00:09:18;13.27;;;7.50;;
48596;SDS011;34382;43.160;24.148;2023-12-04T00:10:51;13.25;;;7.03;;
48596;SDS011;34382;43.160;24.148;2023-12-04T00:12:25;14.00;;;7.53;;
48596;SDS011;34382;43.160;24.148;2023-12-04T00:13:58;14.32;;;7.65;;
48596;SDS011;34382;43.160;24.148;2023-12-04T00:15:30;12.57;;;7.57;;
48596;SDS011;34382;43.160;24.148;2023-12-04T00:17:03;13.07;;;7.40;;
48596;SDS011;34382;43.160;24.148;2023-12-04T00:18:35;15.60;;;7.90;;
48596;SDS011;34382;43.160;24.148;2023-12-04T00:20:08;16.17;;;7.78;;
48596;SDS011;34382;43.160;24.148;2023-12-04T00:21:41;15.20;;;8.10;;
48596;SDS011;34382;43.160;24.148;2023-12-04T00:23:13;11.82;;;7.50;;
48596;SDS011;34382;43.160;24.148;2023-12-04T00:24:45;12.23;;;6.72;;
48596;SDS011;34382;43.160;24.148;2023-12-04T00:26:18;12.02;;;6.82;;
48596;SDS011;34382;43.160;24.148;2023-12-04T00:27:50;12.80;;;7.15;;
48596;SDS011;34382;43.160;24.148;2023-12-04T00:29:22;10.52;;;5.85;;
48596;SDS011;34382;43.160;24.148;2023-12-04T00:30:55;10.75;;;5.47;;
48596;SDS011;34382;43.160;24.148;2023-12-04T00:32:27;10.18;;;5.47;;
48596;SDS011;34382;43.160;24.148;2023-12-04T00:34:00;10.30;;;5.43;;
48596;SDS011;34382;43.160;24.148;2023-12-04T00:35:32;17.10;;;7.85;;
48596;SDS011;34382;43.160;24.148;2023-12-04T00:38:43;11.68;;;6.40;;
48596;SDS011;34382;43.160;24.148;2023-12-04T00:40:16;10.85;;;5.88;;
48596;SDS011;34382;43.160;24.148;2023-12-04T00:41:48;12.02;;;6.18;;
48596;SDS011;34382;43.160;24.148;2023-12-04T00:43:20;11.98;;;5.80;;
48596;SDS011;34382;43.160;24.148;2023-12-04T00:44:52;10.75;;;5.90;;
48596;SDS011;34382;43.160;24.148;2023-12-04T00:46:24;10.27;;;5.70;;
48596;SDS011;34382;43.160;24.148;2023-12-04T00:47:58;12.90;;;6.20;;
48596;SDS011;34382;43.160;24.148;2023-12-04T00:49:30;11.85;;;6.50;;
48596;SDS011;34382;43.160;24.148;2023-12-04T00:51:03;12.90;;;6.55;;
48596;SDS011;34382;43.160;24.148;2023-12-04T00:52:35;11.18;;;6.50;;
48596;SDS011;34382;43.160;24.148;2023-12-04T00:54:08;12.50;;;6.78;;
48596;SDS011;34382;43.160;24.148;2023-12-04T00:55:40;12.55;;;6.93;;
48596;SDS011;34382;43.160;24.148;2023-12-04T00:57:13;11.50;;;6.70;;
48596;SDS011;34382;43.160;24.148;2023-12-04T00:58:45;12.95;;;7.20;;
48596;SDS011;34382;43.160;24.148;2023-12-04T01:00:17;13.00;;;7.18;;
48596;SDS011;34382;43.160;24.148;2023-12-04T01:01:50;12.38;;;6.88;;
48596;SDS011;34382;43.160;24.148;2023-12-04T01:03:22;12.32;;;6.40;;
48596;SDS011;34382;43.160;24.148;2023-12-04T01:04:55;13.35;;;6.85;;
48596;SDS011;34382;43.160;24.148;2023-12-04T01:06:28;11.93;;;6.17;;
48596;SDS011;34382;43.160;24.148;2023-12-04T01:08:01;13.23;;;6.80;;
48596;SDS011;34382;43.160;24.148;2023-12-04T01:09:36;14.07;;;6.97;;
48596;SDS011;34382;43.160;24.148;2023-12-04T01:11:09;11.63;;;6.53;;
48596;SDS011;34382;43.160;24.148;2023-12-04T01:12:41;11.00;;;6.50;;
48596;SDS011;34382;43.160;24.148;2023-12-04T01:14:13;13.88;;;7.28;;
48596;SDS011;34382;43.160;24.148;2023-12-04T01:15:46;13.05;;;7.57;;
48596;SDS011;34382;43.160;24.148;2023-12-04T01:17:20;13.15;;;7.55;;
48596;SDS011;34382;43.160;24.148;2023-12-04T01:18:52;13.80;;;7.18;;
48596;SDS011;34382;43.160;24.148;2023-12-04T01:20:26;13.60;;;7.22;;
48596;SDS011;34382;43.160;24.148;2023-12-04T01:21:58;13.77;;;7.68;;
48596;SDS011;34382;43.160;24.148;2023-12-04T01:23:31;12.57;;;7.40;;
48596;SDS011;34382;43.160;24.148;2023-12-04T01:25:03;12.90;;;7.40;;
48596;SDS011;34382;43.160;24.148;2023-12-04T01:26:36;14.20;;;7.20;;
48596;SDS011;34382;43.160;24.148;2023-12-04T01:28:09;12.80;;;6.65;;
48596;SDS011;34382;43.160;24.148;2023-12-04T01:29:41;11.13;;;6.75;;
48596;SDS011;34382;43.160;24.148;2023-12-04T01:31:13;13.98;;;7.20;;
48596;SDS011;34382;43.160;24.148;2023-12-04T01:32:46;12.85;;;7.28;;
48596;SDS011;34382;43.160;24.148;2023-12-04T01:34:19;13.68;;;7.45;;
48596;SDS011;34382;43.160;24.148;2023-12-04T01:35:51;13.87;;;7.20;;
48596;SDS011;34382;43.160;24.148;2023-12-04T01:37:24;14.52;;;7.90;;
48596;SDS011;34382;43.160;24.148;2023-12-04T01:38:56;14.77;;;8.18;;
48596;SDS011;34382;43.160;24.148;2023-12-04T01:40:28;14.60;;;7.93;;
48596;SDS011;34382;43.160;24.148;2023-12-04T04:03:06;21.70;;;11.93;;
48596;SDS011;34382;43.160;24.148;2023-12-04T04:04:39;17.58;;;11.43;;
48596;SDS011;34382;43.160;24.148;2023-12-04T04:06:12;20.75;;;12.60;;
48596;SDS011;34382;43.160;24.148;2023-12-04T04:07:44;22.15;;;12.55;;
48596;SDS011;34382;43.160;24.148;2023-12-04T04:09:16;19.27;;;11.80;;
48596;SDS011;34382;43.160;24.148;2023-12-04T04:10:48;20.27;;;13.40;;
48596;SDS011;34382;43.160;24.148;2023-12-04T04:12:21;18.65;;;10.75;;
48596;SDS011;34382;43.160;24.148;2023-12-04T04:13:53;17.67;;;10.27;;
48596;SDS011;34382;43.160;24.148;2023-12-04T04:15:25;16.58;;;8.80;;
48596;SDS011;34382;43.160;24.148;2023-12-04T04:18:29;13.68;;;7.00;;
48596;SDS011;34382;43.160;24.148;2023-12-04T04:20:02;16.48;;;9.45;;
48596;SDS011;34382;43.160;24.148;2023-12-04T04:21:38;24.73;;;13.87;;
48596;SDS011;34382;43.160;24.148;2023-12-04T04:23:11;16.80;;;10.32;;
48596;SDS011;34382;43.160;24.148;2023-12-04T04:24:43;15.70;;;9.25;;
48596;SDS011;34382;43.160;24.148;2023-12-04T04:26:16;11.23;;;6.47;;
48596;SDS011;34382;43.160;24.148;2023-12-04T04:27:48;11.35;;;6.85;;
48596;SDS011;34382;43.160;24.148;2023-12-04T04:29:20;15.35;;;6.72;;
48596;SDS011;34382;43.160;24.148;2023-12-04T04:30:52;11.52;;;6.25;;
48596;SDS011;34382;43.160;24.148;2023-12-04T04:32:25;14.63;;;7.57;;
48596;SDS011;34382;43.160;24.148;2023-12-04T04:33:58;12.90;;;7.25;;
48596;SDS011;34382;43.160;24.148;2023-12-04T04:35:31;14.13;;;7.10;;
48596;SDS011;34382;43.160;24.148;2023-12-04T04:37:04;16.42;;;7.75;;
48596;SDS011;34382;43.160;24.148;2023-12-04T04:38:36;13.80;;;8.30;;
48596;SDS011;34382;43.160;24.148;2023-12-04T04:40:09;12.10;;;6.13;;
48596;SDS011;34382;43.160;24.148;2023-12-04T04:41:41;10.50;;;5.70;;
48596;SDS011;34382;43.160;24.148;2023-12-04T04:43:14;12.65;;;7.18;;
48596;SDS011;34382;43.160;24.148;2023-12-04T04:44:46;19.40;;;9.40;;
48596;SDS011;34382;43.160;24.148;2023-12-04T04:46:19;19.95;;;10.55;;
48596;SDS011;34382;43.160;24.148;2023-12-04T04:47:51;20.33;;;11.60;;
48596;SDS011;34382;43.160;24.148;2023-12-04T04:49:24;24.35;;;14.55;;
48596;SDS011;34382;43.160;24.148;2023-12-04T04:50:56;16.70;;;9.63;;
48596;SDS011;34382;43.160;24.148;2023-12-04T04:52:28;14.57;;;7.47;;
48596;SDS011;34382;43.160;24.148;2023-12-04T04:54:03;17.38;;;9.77;;
48596;SDS011;34382;43.160;24.148;2023-12-04T04:55:35;15.07;;;8.10;;
48596;SDS011;34382;43.160;24.148;2023-12-04T04:57:19;15.07;;;8.07;;
48596;SDS011;34382;43.160;24.148;2023-12-04T04:58:52;11.25;;;6.18;;
48596;SDS011;34382;43.160;24.148;2023-12-04T05:00:28;11.57;;;6.37;;
48596;SDS011;34382;43.160;24.148;2023-12-04T05:02:00;12.95;;;7.47;;
48596;SDS011;34382;43.160;24.148;2023-12-04T05:03:32;11.30;;;5.80;;
48596;SDS011;34382;43.160;24.148;2023-12-04T05:05:06;11.00;;;5.90;;
48596;SDS011;34382;43.160;24.148;2023-12-04T05:06:38;11.00;;;5.85;;
48596;SDS011;34382;43.160;24.148;2023-12-04T05:08:11;22.88;;;12.15;;
48596;SDS011;34382;43.160;24.148;2023-12-04T05:09:43;26.10;;;12.93;;
48596;SDS011;34382;43.160;24.148;2023-12-04T05:11:18;18.75;;;9.55;;
48596;SDS011;34382;43.160;24.148;2023-12-04T05:12:50;17.50;;;8.85;;
48596;SDS011;34382;43.160;24.148;2023-12-04T05:14:23;18.65;;;9.18;;
48596;SDS011;34382;43.160;24.148;2023-12-04T05:15:55;17.30;;;10.23;;
48596;SDS011;34382;43.160;24.148;2023-12-04T05:17:27;19.45;;;10.27;;
48596;SDS011;34382;43.160;24.148;2023-12-04T05:19:00;15.98;;;9.38;;
48596;SDS011;34382;43.160;24.148;2023-12-04T05:22:05;17.05;;;8.52;;
48596;SDS011;34382;43.160;24.148;2023-12-04T05:23:38;15.18;;;8.95;;
48596;SDS011;34382;43.160;24.148;2023-12-04T05:25:10;15.85;;;8.45;;
48596;SDS011;34382;43.160;24.148;2023-12-04T05:26:43;22.25;;;11.90;;
48596;SDS011;34382;43.160;24.148;2023-12-04T05:28:15;21.93;;;13.03;;
48596;SDS011;34382;43.160;24.148;2023-12-04T05:29:48;21.85;;;11.98;;
48596;SDS011;34382;43.160;24.148;2023-12-04T05:31:20;21.17;;;10.80;;
48596;SDS011;34382;43.160;24.148;2023-12-04T05:32:52;18.67;;;10.30;;
48596;SDS011;34382;43.160;24.148;2023-12-04T05:34:26;13.95;;;7.47;;
48596;SDS011;34382;43.160;24.148;2023-12-04T05:35:59;16.55;;;8.75;;
48596;SDS011;34382;43.160;24.148;2023-12-04T05:37:32;17.92;;;8.93;;
48596;SDS011;34382;43.160;24.148;2023-12-04T05:39:04;18.45;;;9.50;;
48596;SDS011;34382;43.160;24.148;2023-12-04T05:40:37;25.65;;;13.18;;
48596;SDS011;34382;43.160;24.148;2023-12-04T05:42:09;29.08;;;16.00;;
48596;SDS011;34382;43.160;24.148;2023-12-04T05:43:42;26.08;;;12.63;;
48596;SDS011;34382;43.160;24.148;2023-12-04T05:45:14;14.80;;;8.27;;
48596;SDS011;34382;43.160;24.148;2023-12-04T05:46:46;15.65;;;8.70;;
48596;SDS011;34382;43.160;24.148;2023-12-04T05:48:19;18.58;;;8.68;;
48596;SDS011;34382;43.160;24.148;2023-12-04T05:49:51;22.17;;;12.23;;
48596;SDS011;34382;43.160;24.148;2023-12-04T05:51:24;24.85;;;12.05;;
48596;SDS011;34382;43.160;24.148;2023-12-04T05:52:56;13.75;;;7.55;;
48596;SDS011;34382;43.160;24.148;2023-12-04T05:54:28;15.48;;;9.50;;
48596;SDS011;34382;43.160;24.148;2023-12-04T05:56:02;21.92;;;11.45;;
48596;SDS011;34382;43.160;24.148;2023-12-04T05:57:34;16.50;;;9.23;;
48596;SDS011;34382;43.160;24.148;2023-12-04T05:59:06;21.23;;;10.48;;
48596;SDS011;34382;43.160;24.148;2023-12-04T06:00:39;19.92;;;10.77;;
48596;SDS011;34382;43.160;24.148;2023-12-04T06:02:13;22.05;;;13.32;;
48596;SDS011;34382;43.160;24.148;2023-12-04T06:03:47;20.35;;;12.48;;
48596;SDS011;34382;43.160;24.148;2023-12-04T06:05:19;19.20;;;10.15;;
48596;SDS011;34382;43.160;24.148;2023-12-04T06:06:55;18.27;;;10.43;;
48596;SDS011;34382;43.160;24.148;2023-12-04T06:08:27;20.15;;;10.90;;
48596;SDS011;34382;43.160;24.148;2023-12-04T06:10:00;23.77;;;13.70;;
48596;SDS011;34382;43.160;24.148;2023-12-04T06:11:32;30.00;;;16.73;;
48596;SDS011;34382;43.160;24.148;2023-12-04T06:13:04;26.80;;;15.20;;
48596;SDS011;34382;43.160;24.148;2023-12-04T06:14:37;26.70;;;16.15;;
48596;SDS011;34382;43.160;24.148;2023-12-04T06:16:09;27.77;;;16.70;;
48596;SDS011;34382;43.160;24.148;2023-12-04T06:17:41;27.58;;;16.33;;
48596;SDS011;34382;43.160;24.148;2023-12-04T06:19:14;25.45;;;14.63;;
48596;SDS011;34382;43.160;24.148;2023-12-04T06:20:46;27.27;;;16.48;;
48596;SDS011;34382;43.160;24.148;2023-12-04T06:22:19;27.70;;;16.45;;
48596;SDS011;34382;43.160;24.148;2023-12-04T06:23:53;23.90;;;14.70;;
48596;SDS011;34382;43.160;24.148;2023-12-04T06:27:05;31.65;;;16.55;;
48596;SDS011;34382;43.160;24.148;2023-12-04T06:28:40;25.02;;;13.77;;
48596;SDS011;34382;43.160;24.148;2023-12-04T06:30:13;27.42;;;13.38;;
48596;SDS011;34382;43.160;24.148;2023-12-04T06:31:46;22.58;;;13.63;;
48596;SDS011;34382;43.160;24.148;2023-12-04T06:33:18;22.08;;;13.80;;
48596;SDS011;34382;43.160;24.148;2023-12-04T06:36:25;25.58;;;13.90;;
48596;SDS011;34382;43.160;24.148;2023-12-04T06:37:59;21.58;;;12.18;;
48596;SDS011;34382;43.160;24.148;2023-12-04T06:39:38;21.63;;;12.10;;
48596;SDS011;34382;43.160;24.148;2023-12-04T06:41:11;18.48;;;10.95;;
48596;SDS011;34382;43.160;24.148;2023-12-04T06:42:44;19.58;;;10.90;;
48596;SDS011;34382;43.160;24.148;2023-12-04T06:44:17;20.35;;;12.20;;
48596;SDS011;34382;43.160;24.148;2023-12-04T06:45:50;21.33;;;11.63;;
48596;SDS011;34382;43.160;24.148;2023-12-04T06:47:22;16.70;;;9.60;;
48596;SDS011;34382;43.160;24.148;2023-12-04T06:48:57;14.48;;;7.57;;
48596;SDS011;34382;43.160;24.148;2023-12-04T06:50:31;15.52;;;8.30;;
48596;SDS011;34382;43.160;24.148;2023-12-04T06:52:04;13.35;;;7.07;;
48596;SDS011;34382;43.160;24.148;2023-12-04T06:53:36;11.93;;;6.93;;
48596;SDS011;34382;43.160;24.148;2023-12-04T06:55:09;11.80;;;6.82;;
48596;SDS011;34382;43.160;24.148;2023-12-04T06:56:41;15.13;;;6.85;;
48596;SDS011;34382;43.160;24.148;2023-12-04T06:58:14;12.93;;;6.85;;
48596;SDS011;34382;43.160;24.148;2023-12-04T07:01:20;12.82;;;7.00;;
48596;SDS011;34382;43.160;24.148;2023-12-04T07:02:54;13.50;;;6.43;;
48596;SDS011;34382;43.160;24.148;2023-12-04T07:04:26;11.20;;;6.43;;
48596;SDS011;34382;43.160;24.148;2023-12-04T07:05:58;13.38;;;7.13;;
48596;SDS011;34382;43.160;24.148;2023-12-04T07:07:32;13.32;;;7.07;;
48596;SDS011;34382;43.160;24.148;2023-12-04T07:09:04;12.80;;;6.43;;
48596;SDS011;34382;43.160;24.148;2023-12-04T07:10:36;11.50;;;6.57;;
48596;SDS011;34382;43.160;24.148;2023-12-04T07:12:09;16.13;;;9.20;;
48596;SDS011;34382;43.160;24.148;2023-12-04T07:13:41;15.30;;;8.77;;
48596;SDS011;34382;43.160;24.148;2023-12-04T07:15:14;14.47;;;7.80;;
48596;SDS011;34382;43.160;24.148;2023-12-04T07:16:46;13.73;;;7.80;;
48596;SDS011;34382;43.160;24.148;2023-12-04T07:18:19;14.10;;;7.07;;
48596;SDS011;34382;43.160;24.148;2023-12-04T07:19:51;16.38;;;7.30;;
48596;SDS011;34382;43.160;24.148;2023-12-04T07:21:24;12.27;;;5.90;;
48596;SDS011;34382;43.160;24.148;2023-12-04T07:23:00;13.52;;;6.80;;
48596;SDS011;34382;43.160;24.148;2023-12-04T07:24:32;15.02;;;7.28;;
48596;SDS011;34382;43.160;24.148;2023-12-04T07:26:05;12.65;;;6.10;;
48596;SDS011;34382;43.160;24.148;2023-12-04T07:27:38;11.20;;;6.10;;
48596;SDS011;34382;43.160;24.148;2023-12-04T07:29:10;13.20;;;6.60;;
48596;SDS011;34382;43.160;24.148;2023-12-04T07:30:43;11.40;;;5.85;;
48596;SDS011;34382;43.160;24.148;2023-12-04T07:32:15;11.80;;;6.15;;
48596;SDS011;34382;43.160;24.148;2023-12-04T07:33:49;12.98;;;6.03;;
48596;SDS011;34382;43.160;24.148;2023-12-04T07:35:22;13.30;;;7.15;;
48596;SDS011;34382;43.160;24.148;2023-12-04T07:36:54;11.82;;;6.45;;
48596;SDS011;34382;43.160;24.148;2023-12-04T07:38:26;12.30;;;6.45;;
48596;SDS011;34382;43.160;24.148;2023-12-04T07:39:59;13.93;;;6.95;;
48596;SDS011;34382;43.160;24.148;2023-12-04T07:41:32;12.27;;;7.38;;
48596;SDS011;34382;43.160;24.148;2023-12-04T07:43:05;12.88;;;6.68;;
48596;SDS011;34382;43.160;24.148;2023-12-04T07:44:37;11.77;;;6.88;;
48596;SDS011;34382;43.160;24.148;2023-12-04T07:46:09;10.68;;;6.13;;
48596;SDS011;34382;43.160;24.148;2023-12-04T07:47:45;11.95;;;5.80;;
48596;SDS011;34382;43.160;24.148;2023-12-04T07:49:18;17.25;;;6.78;;
48596;SDS011;34382;43.160;24.148;2023-12-04T07:50:50;12.32;;;7.13;;
48596;SDS011;34382;43.160;24.148;2023-12-04T07:52:23;13.38;;;6.07;;
48596;SDS011;34382;43.160;24.148;2023-12-04T07:53:55;12.25;;;6.18;;
48596;SDS011;34382;43.160;24.148;2023-12-04T07:55:30;12.75;;;6.25;;
48596;SDS011;34382;43.160;24.148;2023-12-04T07:57:03;12.65;;;5.90;;
48596;SDS011;34382;43.160;24.148;2023-12-04T07:58:35;14.60;;;6.07;;
48596;SDS011;34382;43.160;24.148;2023-12-04T08:00:08;14.20;;;6.90;;
48596;SDS011;34382;43.160;24.148;2023-12-04T08:01:41;12.05;;;6.05;;
48596;SDS011;34382;43.160;24.148;2023-12-04T08:03:13;11.60;;;5.90;;
48596;SDS011;34382;43.160;24.148;2023-12-04T08:04:46;9.95;;;4.97;;
48596;SDS011;34382;43.160;24.148;2023-12-04T08:06:19;8.65;;;4.50;;
48596;SDS011;34382;43.160;24.148;2023-12-04T08:07:51;6.72;;;2.95;;
48596;SDS011;34382;43.160;24.148;2023-12-04T08:09:23;6.97;;;3.05;;
48596;SDS011;34382;43.160;24.148;2023-12-04T08:11:01;6.25;;;3.15;;
48596;SDS011;34382;43.160;24.148;2023-12-04T08:12:33;6.57;;;2.90;;
48596;SDS011;34382;43.160;24.148;2023-12-04T08:14:06;8.18;;;2.80;;
48596;SDS011;34382;43.160;24.148;2023-12-04T08:15:38;7.47;;;2.72;;
48596;SDS011;34382;43.160;24.148;2023-12-04T08:17:11;6.38;;;2.55;;
48596;SDS011;34382;43.160;24.148;2023-12-04T08:18:43;6.80;;;3.05;;
48596;SDS011;34382;43.160;24.148;2023-12-04T08:20:16;8.63;;;3.47;;
48596;SDS011;34382;43.160;24.148;2023-12-04T08:22:01;6.35;;;2.55;;
48596;SDS011;34382;43.160;24.148;2023-12-04T08:23:33;8.15;;;3.40;;
48596;SDS011;34382;43.160;24.148;2023-12-04T08:25:06;6.95;;;2.90;;
48596;SDS011;34382;43.160;24.148;2023-12-04T08:26:38;7.07;;;3.17;;
48596;SDS011;34382;43.160;24.148;2023-12-04T08:28:11;6.80;;;2.70;;
48596;SDS011;34382;43.160;24.148;2023-12-04T08:29:43;11.30;;;3.45;;
48596;SDS011;34382;43.160;24.148;2023-12-04T08:31:16;5.28;;;2.70;;
48596;SDS011;34382;43.160;24.148;2023-12-04T08:32:48;10.82;;;4.75;;
48596;SDS011;34382;43.160;24.148;2023-12-04T08:34:21;6.40;;;3.42;;
48596;SDS011;34382;43.160;24.148;2023-12-04T08:35:54;8.85;;;3.95;;
48596;SDS011;34382;43.160;24.148;2023-12-04T08:37:26;4.85;;;2.22;;
48596;SDS011;34382;43.160;24.148;2023-12-04T08:38:59;6.88;;;2.53;;
48596;SDS011;34382;43.160;24.148;2023-12-04T08:40:31;5.57;;;2.00;;
48596;SDS011;34382;43.160;24.148;2023-12-04T08:42:04;7.70;;;2.78;;
48596;SDS011;34382;43.160;24.148;2023-12-04T08:43:44;6.20;;;2.58;;
48596;SDS011;34382;43.160;24.148;2023-12-04T08:45:17;7.90;;;3.28;;
48596;SDS011;34382;43.160;24.148;2023-12-04T08:46:50;7.78;;;2.88;;
48596;SDS011;34382;43.160;24.148;2023-12-04T08:48:22;13.85;;;5.40;;
48596;SDS011;34382;43.160;24.148;2023-12-04T08:49:57;19.08;;;8.90;;
48596;SDS011;34382;43.160;24.148;2023-12-04T08:51:31;4.43;;;2.25;;
48596;SDS011;34382;43.160;24.148;2023-12-04T08:53:05;4.82;;;2.05;;
48596;SDS011;34382;43.160;24.148;2023-12-04T08:56:10;7.50;;;3.17;;
48596;SDS011;34382;43.160;24.148;2023-12-04T08:57:49;5.05;;;2.30;;
48596;SDS011;34382;43.160;24.148;2023-12-04T08:59:22;5.65;;;2.72;;
48596;SDS011;34382;43.160;24.148;2023-12-04T09:00:54;7.28;;;3.13;;
48596;SDS011;34382;43.160;24.148;2023-12-04T09:02:26;5.07;;;2.22;;
48596;SDS011;34382;43.160;24.148;2023-12-04T09:03:59;5.95;;;2.45;;
48596;SDS011;34382;43.160;24.148;2023-12-04T09:05:32;5.60;;;1.92;;
48596;SDS011;34382;43.160;24.148;2023-12-04T09:07:04;11.38;;;2.70;;
48596;SDS011;34382;43.160;24.148;2023-12-04T09:08:40;5.13;;;2.13;;
48596;SDS011;34382;43.160;24.148;2023-12-04T09:10:24;3.78;;;2.10;;
48596;SDS011;34382;43.160;24.148;2023-12-04T09:12:16;5.30;;;2.42;;
48596;SDS011;34382;43.160;24.148;2023-12-04T09:13:49;4.80;;;2.13;;
48596;SDS011;34382;43.160;24.148;2023-12-04T09:15:22;5.67;;;2.43;;
48596;SDS011;34382;43.160;24.148;2023-12-04T09:16:54;7.05;;;2.22;;
48596;SDS011;34382;43.160;24.148;2023-12-04T09:18:27;5.45;;;2.20;;
48596;SDS011;34382;43.160;24.148;2023-12-04T09:19:59;5.28;;;2.08;;
48596;SDS011;34382;43.160;24.148;2023-12-04T09:21:32;4.70;;;2.03;;
48596;SDS011;34382;43.160;24.148;2023-12-04T09:23:05;6.40;;;2.30;;
48596;SDS011;34382;43.160;24.148;2023-12-04T09:24:39;5.13;;;2.08;;
48596;SDS011;34382;43.160;24.148;2023-12-04T09:26:12;5.30;;;2.13;;
48596;SDS011;34382;43.160;24.148;2023-12-04T09:27:45;5.13;;;2.35;;
48596;SDS011;34382;43.160;24.148;2023-12-04T09:29:18;5.68;;;2.30;;
48596;SDS011;34382;43.160;24.148;2023-12-04T09:30:50;5.80;;;2.40;;
48596;SDS011;34382;43.160;24.148;2023-12-04T09:32:23;6.50;;;2.45;;
48596;SDS011;34382;43.160;24.148;2023-12-04T09:33:55;5.03;;;2.28;;
48596;SDS011;34382;43.160;24.148;2023-12-04T09:35:28;6.37;;;2.63;;
48596;SDS011;34382;43.160;24.148;2023-12-04T09:37:00;5.72;;;2.55;;
48596;SDS011;34382;43.160;24.148;2023-12-04T09:38:42;6.22;;;2.35;;
48596;SDS011;34382;43.160;24.148;2023-12-04T09:40:18;5.80;;;2.33;;
48596;SDS011;34382;43.160;24.148;2023-12-04T09:41:50;6.90;;;2.77;;
48596;SDS011;34382;43.160;24.148;2023-12-04T09:43:23;5.65;;;2.22;;
48596;SDS011;34382;43.160;24.148;2023-12-04T09:45:01;6.55;;;2.50;;
48596;SDS011;34382;43.160;24.148;2023-12-04T09:46:35;4.93;;;2.20;;
48596;SDS011;34382;43.160;24.148;2023-12-04T09:48:07;6.00;;;2.47;;
48596;SDS011;34382;43.160;24.148;2023-12-04T09:49:41;4.97;;;2.45;;
48596;SDS011;34382;43.160;24.148;2023-12-04T09:51:14;5.80;;;2.63;;
48596;SDS011;34382;43.160;24.148;2023-12-04T09:52:51;8.23;;;2.80;;
48596;SDS011;34382;43.160;24.148;2023-12-04T09:54:26;5.10;;;2.20;;
48596;SDS011;34382;43.160;24.148;2023-12-04T09:56:00;5.45;;;2.25;;
48596;SDS011;34382;43.160;24.148;2023-12-04T09:57:35;5.80;;;2.38;;
48596;SDS011;34382;43.160;24.148;2023-12-04T09:59:07;6.97;;;2.40;;
48596;SDS011;34382;43.160;24.148;2023-12-04T10:00:40;5.50;;;2.35;;
48596;SDS011;34382;43.160;24.148;2023-12-04T10:02:14;4.68;;;2.20;;
48596;SDS011;34382;43.160;24.148;2023-12-04T10:03:47;5.78;;;2.28;;
48596;SDS011;34382;43.160;24.148;2023-12-04T10:05:19;6.15;;;2.38;;
48596;SDS011;34382;43.160;24.148;2023-12-04T10:06:53;5.65;;;2.30;;
48596;SDS011;34382;43.160;24.148;2023-12-04T10:08:25;7.20;;;2.67;;
48596;SDS011;34382;43.160;24.148;2023-12-04T10:09:57;5.22;;;2.20;;
48596;SDS011;34382;43.160;24.148;2023-12-04T10:11:30;5.82;;;2.33;;
48596;SDS011;34382;43.160;24.148;2023-12-04T10:13:03;7.80;;;3.27;;
48596;SDS011;34382;43.160;24.148;2023-12-04T10:14:35;6.45;;;2.50;;
48596;SDS011;34382;43.160;24.148;2023-12-04T10:16:08;5.93;;;2.63;;
48596;SDS011;34382;43.160;24.148;2023-12-04T10:17:41;6.47;;;2.40;;
48596;SDS011;34382;43.160;24.148;2023-12-04T10:19:19;8.25;;;2.85;;
48596;SDS011;34382;43.160;24.148;2023-12-04T10:20:55;5.38;;;2.55;;
48596;SDS011;34382;43.160;24.148;2023-12-04T10:22:28;6.07;;;2.60;;
48596;SDS011;34382;43.160;24.148;2023-12-04T10:24:00;5.82;;;2.70;;
48596;SDS011;34382;43.160;24.148;2023-12-04T10:25:33;6.55;;;2.60;;
48596;SDS011;34382;43.160;24.148;2023-12-04T10:27:06;6.13;;;2.45;;
48596;SDS011;34382;43.160;24.148;2023-12-04T10:29:00;6.72;;;2.85;;
48596;SDS011;34382;43.160;24.148;2023-12-04T10:30:33;6.72;;;2.70;;
48596;SDS011;34382;43.160;24.148;2023-12-04T10:32:06;5.93;;;2.50;;
48596;SDS011;34382;43.160;24.148;2023-12-04T10:33:38;5.87;;;2.77;;
48596;SDS011;34382;43.160;24.148;2023-12-04T10:35:13;6.40;;;2.83;;
48596;SDS011;34382;43.160;24.148;2023-12-04T10:36:46;6.03;;;2.55;;
48596;SDS011;34382;43.160;24.148;2023-12-04T10:38:18;5.90;;;2.50;;
48596;SDS011;34382;43.160;24.148;2023-12-04T10:39:51;6.82;;;2.70;;
48596;SDS011;34382;43.160;24.148;2023-12-04T10:41:23;4.80;;;2.50;;
48596;SDS011;34382;43.160;24.148;2023-12-04T10:43:12;6.05;;;2.53;;
48596;SDS011;34382;43.160;24.148;2023-12-04T10:44:47;7.47;;;2.60;;
48596;SDS011;34382;43.160;24.148;2023-12-04T10:46:20;6.28;;;2.50;;
48596;SDS011;34382;43.160;24.148;2023-12-04T10:47:52;6.13;;;2.65;;
48596;SDS011;34382;43.160;24.148;2023-12-04T10:49:26;6.45;;;2.75;;
48596;SDS011;34382;43.160;24.148;2023-12-04T10:50:59;5.63;;;2.53;;
48596;SDS011;34382;43.160;24.148;2023-12-04T10:52:32;4.40;;;2.40;;
48596;SDS011;34382;43.160;24.148;2023-12-04T10:54:05;6.10;;;2.70;;
48596;SDS011;34382;43.160;24.148;2023-12-04T10:55:38;6.30;;;2.83;;
48596;SDS011;34382;43.160;24.148;2023-12-04T10:57:37;5.68;;;2.53;;
48596;SDS011;34382;43.160;24.148;2023-12-04T10:59:11;6.68;;;2.92;;
48596;SDS011;34382;43.160;24.148;2023-12-04T11:00:45;6.45;;;2.75;;
48596;SDS011;34382;43.160;24.148;2023-12-04T11:02:19;5.78;;;2.58;;
48596;SDS011;34382;43.160;24.148;2023-12-04T11:03:55;5.43;;;2.63;;
48596;SDS011;34382;43.160;24.148;2023-12-04T11:05:29;6.45;;;2.50;;
48596;SDS011;34382;43.160;24.148;2023-12-04T11:07:02;5.72;;;2.72;;
48596;SDS011;34382;43.160;24.148;2023-12-04T11:08:38;5.05;;;2.47;;
48596;SDS011;34382;43.160;24.148;2023-12-04T11:11:44;5.88;;;2.75;;
48596;SDS011;34382;43.160;24.148;2023-12-04T11:15:02;6.43;;;2.70;;
48596;SDS011;34382;43.160;24.148;2023-12-04T11:18:12;6.63;;;3.00;;
48596;SDS011;34382;43.160;24.148;2023-12-04T11:19:52;7.18;;;3.03;;
48596;SDS011;34382;43.160;24.148;2023-12-04T11:21:27;8.18;;;3.05;;
48596;SDS011;34382;43.160;24.148;2023-12-04T11:23:00;6.60;;;3.10;;
48596;SDS011;34382;43.160;24.148;2023-12-04T11:24:34;6.53;;;3.00;;
48596;SDS011;34382;43.160;24.148;2023-12-04T11:26:07;6.68;;;3.00;;
48596;SDS011;34382;43.160;24.148;2023-12-04T11:29:13;6.22;;;3.05;;
48596;SDS011;34382;43.160;24.148;2023-12-04T11:30:46;6.90;;;3.15;;
48596;SDS011;34382;43.160;24.148;2023-12-04T11:32:23;6.28;;;2.85;;
48596;SDS011;34382;43.160;24.148;2023-12-04T11:34:03;7.97;;;3.10;;
48596;SDS011;34382;43.160;24.148;2023-12-04T11:35:39;7.30;;;3.10;;
48596;SDS011;34382;43.160;24.148;2023-12-04T11:37:12;7.63;;;3.03;;
48596;SDS011;34382;43.160;24.148;2023-12-04T11:38:45;7.95;;;3.30;;
48596;SDS011;34382;43.160;24.148;2023-12-04T11:40:19;7.25;;;3.20;;
48596;SDS011;34382;43.160;24.148;2023-12-04T11:41:51;7.25;;;3.35;;
48596;SDS011;34382;43.160;24.148;2023-12-04T11:43:24;7.72;;;2.97;;
48596;SDS011;34382;43.160;24.148;2023-12-04T11:44:58;7.38;;;3.40;;
48596;SDS011;34382;43.160;24.148;2023-12-04T11:46:31;6.75;;;3.22;;